Авиационная погода в аэропорту Международный

Регион: 
Погода METAR: 
UKLL 241800Z 00000MPS CAVOK 00/M01 Q1033 R31/CLRD// NOSIG
Время наблюдения
2021-10-24T18:00:00Z
Температура C
0.0
Точка росы
-1.0
Направление ветра
0
Скорость ветра (узлы)
0
Метео видимость
6.21
Явления погоды
Условия полета
VFR
Аэропорт подробнее: